Time;durP1;ratioP1;P1;durP2;ratioP2;P2;SDS_P1;SDS_P2;PMS_P1;PMS_P2;Temp;Humidity;BMP_temperature;BMP_pressure;BME280_temperature;BME280_humidity;BME280_pressure;Samples;Min_cycle;Max_cycle;Signal;HPM_P1;HPM_P2
2021/04/17 00:01:16;;;;;;;5.40;3.03;;;7.30;65.30;;;;;;5076922;28;20501;-82
2021/04/17 00:03:42;;;;;;;6.20;3.40;;;7.30;65.30;;;;;;5077250;28;20480;-81
2021/04/17 00:06:08;;;;;;;5.60;2.87;;;7.30;65.20;;;;;;5077287;28;20192;-81
2021/04/17 00:08:34;;;;;;;6.33;3.17;;;7.40;65.10;;;;;;5072635;28;20506;-81
2021/04/17 00:11:00;;;;;;;7.72;3.10;;;7.30;65.20;;;;;;5073306;28;20407;-82
2021/04/17 00:13:26;;;;;;;8.70;3.17;;;7.20;65.20;;;;;;5115596;28;20234;-81
2021/04/17 00:15:52;;;;;;;6.10;4.00;;;7.20;65.40;;;;;;5115632;28;20413;-80
2021/04/17 00:18:18;;;;;;;5.85;3.35;;;7.10;65.60;;;;;;5114051;28;20183;-81
2021/04/17 00:20:44;;;;;;;5.23;3.50;;;7.20;65.60;;;;;;5095781;28;20232;-81
2021/04/17 00:23:10;;;;;;;6.27;3.10;;;7.20;65.50;;;;;;5095257;28;20307;-81
2021/04/17 00:25:36;;;;;;;6.22;3.50;;;7.20;65.60;;;;;;5094750;28;20180;-81
2021/04/17 00:28:02;;;;;;;10.53;4.73;;;7.30;65.80;;;;;;5098328;28;20200;-81
2021/04/17 00:30:28;;;;;;;5.97;3.50;;;7.30;65.60;;;;;;5093738;28;20167;-81
2021/04/17 00:32:53;;;;;;;8.60;3.60;;;7.30;65.60;;;;;;5096785;28;20472;-81
2021/04/17 00:35:19;;;;;;;5.77;4.03;;;7.30;65.60;;;;;;5089315;28;20176;-81
2021/04/17 00:37:45;;;;;;;11.93;3.97;;;7.20;65.60;;;;;;5075206;28;20173;-81
2021/04/17 00:40:11;;;;;;;8.03;4.43;;;7.20;65.80;;;;;;5075587;28;20177;-82
2021/04/17 00:42:37;;;;;;;12.57;3.95;;;7.20;66.00;;;;;;5086889;28;20203;-82
2021/04/17 00:45:05;;;;;;;7.07;4.03;;;7.10;66.10;;;;;;5102227;28;20203;-82
2021/04/17 00:47:31;;;;;;;4.75;3.38;;;7.10;66.30;;;;;;5095046;28;20183;-81
2021/04/17 00:49:57;;;;;;;4.97;4.00;;;6.90;66.50;;;;;;5095035;28;20200;-81
2021/04/17 00:52:23;;;;;;;9.50;3.63;;;7.00;66.60;;;;;;5095323;28;20952;-81
2021/04/17 00:54:48;;;;;;;9.23;3.53;;;7.00;66.60;;;;;;5099484;28;20183;-81
2021/04/17 00:57:14;;;;;;;11.57;4.00;;;6.90;66.60;;;;;;5109786;28;20422;-81
2021/04/17 00:59:40;;;;;;;7.00;4.20;;;6.90;66.70;;;;;;5099844;28;20186;-80
2021/04/17 01:02:05;;;;;;;10.17;4.03;;;6.80;66.70;;;;;;5095020;28;20323;-81
2021/04/17 01:04:46;;;;;;;4.90;3.23;;;6.80;66.90;;;;;;5094472;28;20735;-82
2021/04/17 01:07:21;;;;;;;8.85;4.20;;;6.80;66.90;;;;;;5094071;28;20431;-81
2021/04/17 01:09:49;;;;;;;6.15;3.35;;;6.80;66.90;;;;;;5093987;28;20182;-80
2021/04/17 01:12:19;;;;;;;11.63;3.28;;;6.80;67.00;;;;;;5100712;28;20191;-80
2021/04/17 01:14:48;;;;;;;8.10;4.53;;;6.70;67.20;;;;;;5094827;28;20553;-80
2021/04/17 01:17:14;;;;;;;9.70;4.80;;;6.50;67.40;;;;;;5094940;28;20262;-80
2021/04/17 01:19:40;;;;;;;7.53;3.97;;;6.60;67.70;;;;;;5094599;28;20226;-81
2021/04/17 01:22:08;;;;;;;7.83;3.50;;;6.50;67.70;;;;;;5097607;28;20200;-81
2021/04/17 01:24:36;;;;;;;12.25;4.53;;;6.60;67.60;;;;;;5106849;28;20184;-81
2021/04/17 01:27:05;;;;;;;8.45;4.40;;;6.60;67.60;;;;;;5098837;28;20587;-81
2021/04/17 01:29:31;;;;;;;11.95;5.00;;;6.40;67.90;;;;;;5099451;28;20164;-80
2021/04/17 01:31:59;;;;;;;13.57;4.25;;;6.50;68.10;;;;;;5098426;28;20686;-81
2021/04/17 01:34:26;;;;;;;9.02;5.13;;;6.30;68.50;;;;;;5099441;28;20168;-81
2021/04/17 01:36:53;;;;;;;7.40;4.13;;;6.30;68.60;;;;;;5099074;28;20176;-81
2021/04/17 01:39:21;;;;;;;8.18;4.97;;;6.40;68.50;;;;;;5097734;28;20188;-80
2021/04/17 01:41:50;;;;;;;6.45;4.28;;;6.30;68.60;;;;;;5103744;28;20291;-80
2021/04/17 01:44:24;;;;;;;8.32;4.35;;;6.40;68.50;;;;;;5080800;28;20192;-81
2021/04/17 01:47:02;;;;;;;8.32;4.45;;;6.30;68.50;;;;;;5078248;28;20647;-81
2021/04/17 01:49:30;;;;;;;8.05;4.60;;;6.40;68.50;;;;;;5077564;28;20278;-80
2021/04/17 01:51:57;;;;;;;6.22;3.90;;;6.40;68.40;;;;;;5078428;28;20279;-81
2021/04/17 01:54:35;;;;;;;9.07;5.45;;;6.30;68.50;;;;;;5078565;28;20651;-80
2021/04/17 01:57:04;;;;;;;8.40;4.95;;;6.30;68.60;;;;;;5084375;28;20667;-80
2021/04/17 01:59:34;;;;;;;13.68;5.25;;;6.30;68.70;;;;;;5097293;28;20768;-79
2021/04/17 02:02:00;;;;;;;7.93;4.30;;;6.20;69.00;;;;;;5100879;28;20227;-81
2021/04/17 02:04:26;;;;;;;8.40;4.82;;;6.10;69.20;;;;;;5098926;28;20214;-81
2021/04/17 02:06:52;;;;;;;8.02;3.83;;;6.00;69.60;;;;;;5098046;28;20172;-80
2021/04/17 02:09:17;;;;;;;6.93;4.67;;;5.90;69.90;;;;;;5097913;28;20171;-80
2021/04/17 02:11:43;;;;;;;7.33;4.27;;;6.00;69.90;;;;;;5103629;28;20437;-81
2021/04/17 02:14:09;;;;;;;7.80;4.73;;;6.00;69.90;;;;;;5118305;28;20175;-81
2021/04/17 02:16:47;;;;;;;6.68;4.47;;;6.10;69.80;;;;;;5128606;28;20588;-80
2021/04/17 02:19:22;;;;;;;9.15;4.40;;;6.10;69.80;;;;;;5118525;28;20233;-80
2021/04/17 02:21:49;;;;;;;13.48;4.55;;;5.90;70.00;;;;;;5097061;28;20207;-81
2021/04/17 02:24:15;;;;;;;8.10;4.32;;;6.00;70.10;;;;;;5099429;28;20755;-81
2021/04/17 02:26:41;;;;;;;6.97;4.00;;;5.90;70.20;;;;;;5098444;28;20233;-80
2021/04/17 02:29:07;;;;;;;10.88;5.05;;;5.80;70.30;;;;;;5096678;28;20191;-80
2021/04/17 02:31:34;;;;;;;9.43;4.63;;;5.90;70.30;;;;;;5100052;28;20179;-82
2021/04/17 02:34:01;;;;;;;8.20;4.35;;;5.80;70.40;;;;;;5099238;28;20179;-81
2021/04/17 02:36:27;;;;;;;6.53;4.30;;;5.80;70.50;;;;;;5096000;28;20606;-82
2021/04/17 02:38:52;;;;;;;9.98;4.63;;;5.70;70.80;;;;;;5099690;28;20176;-82
2021/04/17 02:41:19;;;;;;;11.60;4.67;;;5.70;71.00;;;;;;5103102;28;20593;-81
2021/04/17 02:43:46;;;;;;;11.98;4.95;;;5.70;71.10;;;;;;5097319;28;20567;-80
2021/04/17 02:46:12;;;;;;;7.57;4.00;;;5.70;71.30;;;;;;5096087;28;20172;-82
2021/04/17 02:48:39;;;;;;;9.63;4.53;;;5.70;71.20;;;;;;5097314;28;20179;-82
2021/04/17 02:51:06;;;;;;;6.55;4.85;;;5.70;71.40;;;;;;5098415;28;20196;-82
2021/04/17 02:53:33;;;;;;;10.00;4.95;;;5.60;71.50;;;;;;5101791;28;20206;-81
2021/04/17 02:55:59;;;;;;;15.23;4.25;;;5.60;71.70;;;;;;5101886;28;20202;-81
2021/04/17 02:58:26;;;;;;;12.57;5.25;;;5.70;71.70;;;;;;5082156;28;20187;-81
2021/04/17 03:00:52;;;;;;;8.98;5.80;;;5.70;71.60;;;;;;5083172;28;20177;-81
2021/04/17 03:03:18;;;;;;;13.70;5.10;;;5.60;71.70;;;;;;5086179;28;20211;-81
2021/04/17 03:05:44;;;;;;;13.47;5.33;;;5.60;71.80;;;;;;5088926;28;20177;-81
2021/04/17 03:08:11;;;;;;;10.45;5.22;;;5.70;71.90;;;;;;5087226;28;20426;-82
2021/04/17 03:10:37;;;;;;;12.40;5.43;;;5.60;71.80;;;;;;5086549;28;20177;-82
2021/04/17 03:13:04;;;;;;;8.02;4.90;;;5.60;71.80;;;;;;5125500;28;20202;-82
2021/04/17 03:15:30;;;;;;;8.15;5.28;;;5.60;71.80;;;;;;5128671;28;20194;-82
2021/04/17 03:17:56;;;;;;;8.70;5.82;;;5.70;72.50;;;;;;5129547;28;20179;-81
2021/04/17 03:20:22;;;;;;;6.20;4.35;;;5.70;71.60;;;;;;5099793;28;20192;-80
2021/04/17 03:22:48;;;;;;;10.50;4.13;;;5.60;71.50;;;;;;5096452;28;20207;-80
2021/04/17 03:25:14;;;;;;;10.07;5.60;;;5.70;71.50;;;;;;5096478;28;20186;-81
2021/04/17 03:27:41;;;;;;;10.77;6.20;;;5.60;71.30;;;;;;5096125;28;20426;-81
2021/04/17 03:30:13;;;;;;;8.68;4.63;;;5.60;71.30;;;;;;5097976;28;20409;-80
2021/04/17 03:32:39;;;;;;;12.63;5.65;;;5.50;71.40;;;;;;5096316;28;20202;-81
2021/04/17 03:35:07;;;;;;;12.93;6.03;;;5.50;71.50;;;;;;5096821;28;20243;-81
2021/04/17 03:37:33;;;;;;;7.68;4.53;;;5.50;71.40;;;;;;5106096;28;20428;-81
2021/04/17 03:39:59;;;;;;;10.80;5.57;;;5.40;71.50;;;;;;5110756;28;20180;-82
2021/04/17 03:42:24;;;;;;;13.10;5.63;;;5.30;71.70;;;;;;5091624;28;20446;-81
2021/04/17 03:44:50;;;;;;;10.40;4.93;;;5.30;72.00;;;;;;5075350;28;20234;-81
2021/04/17 03:47:16;;;;;;;9.20;5.97;;;5.20;71.90;;;;;;5077086;28;20196;-81
2021/04/17 03:49:42;;;;;;;13.23;5.05;;;5.20;72.00;;;;;;5088053;28;20183;-81
2021/04/17 03:52:08;;;;;;;8.60;5.57;;;5.30;71.90;;;;;;5096508;28;20200;-80
2021/04/17 03:54:34;;;;;;;13.83;5.70;;;5.40;72.40;;;;;;5096426;28;20546;-80
2021/04/17 03:56:59;;;;;;;6.50;3.80;;;5.30;71.70;;;;;;5100130;28;20202;-81
2021/04/17 03:59:25;;;;;;;11.73;4.40;;;5.20;71.60;;;;;;5079292;28;20445;-81
2021/04/17 04:01:51;;;;;;;8.43;4.18;;;5.30;71.80;;;;;;5076882;28;20439;-81
2021/04/17 04:04:17;;;;;;;8.27;4.83;;;5.30;71.70;;;;;;5075628;28;20208;-81
2021/04/17 04:06:43;;;;;;;7.00;5.13;;;5.40;71.40;;;;;;5076055;28;20181;-80
2021/04/17 04:09:08;;;;;;;11.03;4.53;;;5.20;71.50;;;;;;5078666;28;20169;-81
2021/04/17 04:11:34;;;;;;;10.23;4.90;;;5.20;71.60;;;;;;5077131;28;20230;-80
2021/04/17 04:14:00;;;;;;;7.23;4.10;;;5.10;71.80;;;;;;5076795;28;20173;-81
2021/04/17 04:16:25;;;;;;;6.30;4.60;;;5.20;71.70;;;;;;5077091;28;20188;-81
2021/04/17 04:18:52;;;;;;;10.07;4.90;;;5.20;71.40;;;;;;5076725;28;20175;-80
2021/04/17 04:21:17;;;;;;;10.25;4.50;;;5.20;71.40;;;;;;5079274;28;20632;-80
2021/04/17 04:23:43;;;;;;;7.67;4.87;;;5.20;71.20;;;;;;5076984;28;20261;-80
2021/04/17 04:26:09;;;;;;;8.53;4.00;;;5.20;71.20;;;;;;5090200;28;20650;-81
2021/04/17 04:28:35;;;;;;;6.90;3.80;;;5.30;71.10;;;;;;5096768;28;20183;-81
2021/04/17 04:31:00;;;;;;;8.47;4.73;;;5.30;70.90;;;;;;5097406;28;20425;-81
2021/04/17 04:33:26;;;;;;;8.43;3.77;;;5.20;70.70;;;;;;5097572;28;20206;-81
2021/04/17 04:35:52;;;;;;;6.23;4.30;;;5.20;71.50;;;;;;5099125;28;20429;-81
2021/04/17 04:38:18;;;;;;;7.80;4.13;;;5.20;70.80;;;;;;5097455;28;20296;-81
2021/04/17 04:40:44;;;;;;;9.70;4.07;;;5.30;70.80;;;;;;5096858;28;20426;-81
2021/04/17 04:43:09;;;;;;;9.32;4.40;;;5.10;70.60;;;;;;5083829;28;20249;-80
2021/04/17 04:45:37;;;;;;;14.30;5.23;;;5.10;70.80;;;;;;5075889;28;20184;-80
2021/04/17 04:48:04;;;;;;;6.78;3.38;;;5.10;70.80;;;;;;5085568;28;20548;-80
2021/04/17 04:50:30;;;;;;;7.95;3.78;;;5.00;71.00;;;;;;5077394;28;20215;-81
2021/04/17 04:52:56;;;;;;;9.73;4.03;;;5.20;71.00;;;;;;5077795;28;20250;-81
2021/04/17 04:55:22;;;;;;;10.20;4.73;;;5.30;70.90;;;;;;5080815;28;20651;-80
2021/04/17 04:57:48;;;;;;;6.50;3.93;;;5.10;70.60;;;;;;5096059;28;20579;-81
2021/04/17 05:00:14;;;;;;;9.30;3.95;;;5.10;70.70;;;;;;5099272;28;20418;-80
2021/04/17 05:02:39;;;;;;;6.80;3.60;;;5.10;70.80;;;;;;5099763;28;20200;-81
2021/04/17 05:05:06;;;;;;;7.10;4.13;;;5.00;70.90;;;;;;5114393;28;20218;-81
2021/04/17 05:07:31;;;;;;;7.70;3.60;;;5.20;70.80;;;;;;5107171;28;20301;-80
2021/04/17 05:09:57;;;;;;;7.00;4.33;;;5.30;70.70;;;;;;5100097;28;20206;-80
2021/04/17 05:12:23;;;;;;;7.03;3.70;;;5.30;70.30;;;;;;5110020;28;20301;-80
2021/04/17 05:14:49;;;;;;;6.27;3.40;;;5.20;70.30;;;;;;5118819;28;20208;-81
2021/04/17 05:17:14;;;;;;;5.20;4.00;;;5.00;70.70;;;;;;5118920;28;20417;-80
2021/04/17 05:19:41;;;;;;;13.97;4.30;;;5.20;70.70;;;;;;5117451;28;20259;-79
2021/04/17 05:22:08;;;;;;;6.32;3.70;;;5.40;70.50;;;;;;5116877;28;20717;-79
2021/04/17 05:24:34;;;;;;;10.10;3.72;;;5.40;70.30;;;;;;5117959;28;20211;-79
2021/04/17 05:27:00;;;;;;;12.50;4.43;;;5.40;70.10;;;;;;5120588;28;20198;-79
2021/04/17 05:29:26;;;;;;;8.00;4.65;;;5.40;70.20;;;;;;5127651;28;20405;-81
2021/04/17 05:31:51;;;;;;;6.20;3.63;;;5.50;70.00;;;;;;5120360;28;20206;-81
2021/04/17 05:34:17;;;;;;;6.50;3.83;;;5.50;70.00;;;;;;5124267;28;20562;-80
2021/04/17 05:36:43;;;;;;;11.18;3.30;;;5.60;69.70;;;;;;5118996;28;20167;-80
2021/04/17 05:39:09;;;;;;;5.53;3.40;;;6.20;69.00;;;;;;5118384;28;20247;-80
2021/04/17 05:41:35;;;;;;;5.77;3.50;;;6.60;67.50;;;;;;5116730;28;20232;-81
2021/04/17 05:44:10;;;;;;;4.37;3.17;;;7.30;65.90;;;;;;5098836;28;20643;-80
2021/04/17 05:46:36;;;;;;;6.97;2.88;;;7.60;63.80;;;;;;5096575;28;20267;-81
2021/04/17 05:49:02;;;;;;;8.02;3.20;;;8.10;62.10;;;;;;5097873;28;20183;-80
2021/04/17 05:51:27;;;;;;;5.00;3.57;;;8.70;60.50;;;;;;5096459;28;20596;-80
2021/04/17 05:53:53;;;;;;;4.73;3.30;;;9.60;58.50;;;;;;5098522;28;20541;-81
2021/04/17 05:56:18;;;;;;;8.33;4.63;;;10.20;56.40;;;;;;5096744;28;20187;-81
2021/04/17 05:58:44;;;;;;;6.33;3.43;;;10.80;54.10;;;;;;5097139;28;20175;-81
2021/04/17 06:01:10;;;;;;;5.57;3.27;;;11.30;52.40;;;;;;5102188;28;20172;-81
2021/04/17 06:03:35;;;;;;;7.70;3.70;;;11.60;50.70;;;;;;5102361;28;20230;-81
2021/04/17 06:06:01;;;;;;;6.30;3.90;;;11.10;50.00;;;;;;5102623;28;20247;-80
2021/04/17 06:08:27;;;;;;;5.93;3.27;;;11.10;50.20;;;;;;5100683;28;20619;-80
2021/04/17 06:10:53;;;;;;;6.38;3.10;;;11.50;49.70;;;;;;5100825;28;20196;-81
2021/04/17 06:13:19;;;;;;;7.77;3.60;;;11.30;49.30;;;;;;5098865;28;20226;-82
2021/04/17 06:15:44;;;;;;;6.17;3.90;;;11.70;48.30;;;;;;5099273;28;20204;-81
2021/04/17 06:18:10;;;;;;;9.00;3.53;;;11.20;49.00;;;;;;5096215;28;20184;-82
2021/04/17 06:20:36;;;;;;;4.87;3.43;;;12.00;48.40;;;;;;5097541;28;20414;-82
2021/04/17 06:23:02;;;;;;;8.70;3.23;;;11.60;48.10;;;;;;5105402;28;20199;-82
2021/04/17 06:25:27;;;;;;;3.97;2.63;;;12.50;46.50;;;;;;5108844;28;20172;-81
2021/04/17 06:27:53;;;;;;;4.60;3.20;;;12.30;45.70;;;;;;5110317;28;20194;-81
2021/04/17 06:30:19;;;;;;;9.83;3.60;;;12.00;46.30;;;;;;5111345;28;20183;-81
2021/04/17 06:32:45;;;;;;;5.68;3.40;;;12.40;45.90;;;;;;5098334;28;20238;-80
2021/04/17 06:35:11;;;;;;;4.47;2.80;;;12.60;45.20;;;;;;5101025;28;20549;-81
2021/04/17 06:37:37;;;;;;;7.32;3.15;;;12.60;44.80;;;;;;5098297;28;20191;-82
2021/04/17 06:40:03;;;;;;;7.83;4.30;;;13.20;43.80;;;;;;5097147;28;20176;-82
2021/04/17 06:42:31;;;;;;;3.20;2.95;;;13.40;44.20;;;;;;5089197;28;20309;-81
2021/04/17 06:44:59;;;;;;;4.93;3.85;;;14.40;41.50;;;;;;5076023;28;20216;-82
2021/04/17 06:47:25;;;;;;;8.13;3.90;;;14.70;40.00;;;;;;5077629;28;20169;-82
2021/04/17 06:49:51;;;;;;;4.77;3.73;;;14.90;39.40;;;;;;5077649;28;20192;-81
2021/04/17 06:52:17;;;;;;;10.63;4.07;;;15.40;38.40;;;;;;5078143;28;20196;-82
2021/04/17 06:54:46;;;;;;;7.25;3.33;;;14.90;38.20;;;;;;5078657;28;20181;-82
2021/04/17 06:57:14;;;;;;;5.13;2.50;;;14.40;38.60;;;;;;5076475;28;20207;-82
2021/04/17 06:59:42;;;;;;;11.15;3.90;;;14.00;39.90;;;;;;5076074;28;20204;-82
2021/04/17 07:02:12;;;;;;;4.95;3.35;;;13.60;41.00;;;;;;5077131;28;20192;-81
2021/04/17 07:04:38;;;;;;;8.55;3.08;;;13.10;42.50;;;;;;5094151;28;20195;-82
2021/04/17 07:07:04;;;;;;;7.50;3.10;;;12.60;43.60;;;;;;5097722;28;20164;-81
2021/04/17 07:09:30;;;;;;;5.83;3.33;;;12.20;44.60;;;;;;5097080;28;20414;-82
2021/04/17 07:11:55;;;;;;;3.03;2.70;;;11.70;45.90;;;;;;5096438;28;20219;-82
2021/04/17 07:14:21;;;;;;;3.93;2.50;;;11.50;47.20;;;;;;5096512;28;20418;-82
2021/04/17 07:17:01;;;;;;;4.90;3.27;;;10.80;48.60;;;;;;5097717;28;20200;-81
2021/04/17 07:20:02;;;;;;;9.15;2.92;;;10.30;50.20;;;;;;5096857;28;20418;-81
2021/04/17 07:22:30;;;;;;;4.53;2.95;;;10.10;51.40;;;;;;5096249;28;20203;-82
2021/04/17 07:25:21;;;;;;;4.60;3.00;;;9.90;52.40;;;;;;5096598;28;20298;-82
2021/04/17 07:27:51;;;;;;;4.68;3.20;;;9.20;53.80;;;;;;5104728;28;20186;-79
2021/04/17 07:30:17;;;;;;;4.47;2.78;;;9.10;55.00;;;;;;5097890;28;20260;-81
2021/04/17 07:33:03;;;;;;;6.23;3.40;;;8.80;55.90;;;;;;5097597;28;20224;-82
2021/04/17 07:35:35;;;;;;;8.80;3.45;;;8.80;56.30;;;;;;5097755;28;20410;-80
2021/04/17 07:38:12;;;;;;;4.45;2.97;;;8.90;56.30;;;;;;5100001;28;20179;-82
2021/04/17 07:40:39;;;;;;;7.15;3.00;;;8.90;56.10;;;;;;5097260;28;20275;-82
2021/04/17 07:43:05;;;;;;;7.25;3.00;;;8.90;56.00;;;;;;5079488;28;20253;-82
2021/04/17 07:45:39;;;;;;;4.33;2.70;;;8.80;56.10;;;;;;5078538;28;20331;-82
2021/04/17 07:48:27;;;;;;;4.95;3.53;;;8.80;55.80;;;;;;5081760;28;20938;-82
2021/04/17 07:50:59;;;;;;;3.85;2.50;;;8.80;55.70;;;;;;5088493;28;20220;-81
2021/04/17 07:53:31;;;;;;;8.55;3.22;;;8.80;56.10;;;;;;5077528;28;20197;-80
2021/04/17 07:56:23;;;;;;;11.65;3.58;;;8.90;56.40;;;;;;5079257;28;20177;-79
2021/04/17 07:58:50;;;;;;;9.02;3.60;;;9.00;55.40;;;;;;5074332;28;20238;-80
2021/04/17 08:01:18;;;;;;;5.40;2.95;;;9.10;55.10;;;;;;5075956;28;20213;-80
2021/04/17 08:03:46;;;;;;;8.38;3.03;;;9.20;54.50;;;;;;5077033;28;20196;-80
2021/04/17 08:06:13;;;;;;;5.55;2.90;;;9.20;54.10;;;;;;5078334;28;20260;-80
2021/04/17 08:08:40;;;;;;;4.47;2.80;;;9.30;53.90;;;;;;5075939;28;20222;-80
2021/04/17 08:11:07;;;;;;;4.30;3.03;;;9.40;53.50;;;;;;5079602;28;20321;-81
2021/04/17 08:13:41;;;;;;;14.52;3.20;;;9.50;53.00;;;;;;5117348;28;20301;-81
2021/04/17 08:16:10;;;;;;;14.07;3.78;;;9.50;52.80;;;;;;5116158;28;20187;-80
2021/04/17 08:18:38;;;;;;;6.15;3.40;;;9.60;52.40;;;;;;5116492;28;20179;-84
2021/04/17 08:21:08;;;;;;;5.35;3.35;;;9.60;52.10;;;;;;5116822;28;20179;-83
2021/04/17 08:23:35;;;;;;;6.18;3.03;;;9.80;51.80;;;;;;5116020;28;20297;-83
2021/04/17 08:26:02;;;;;;;9.68;3.47;;;9.80;51.30;;;;;;5125546;28;20167;-83
2021/04/17 08:28:28;;;;;;;9.00;3.40;;;9.70;51.60;;;;;;5121240;28;20175;-83
2021/04/17 08:31:20;;;;;;;9.40;3.43;;;9.60;51.60;;;;;;5119703;28;20179;-82
2021/04/17 08:34:04;;;;;;;3.50;3.05;;;9.90;51.20;;;;;;5119467;28;20282;-82
2021/04/17 08:36:34;;;;;;;9.43;3.85;;;10.00;50.30;;;;;;5099796;28;20179;-82
2021/04/17 08:39:00;;;;;;;3.92;2.90;;;10.00;49.90;;;;;;5100036;28;20176;-83
2021/04/17 08:41:43;;;;;;;3.67;2.43;;;10.00;49.10;;;;;;5101160;28;20175;-82
2021/04/17 08:44:25;;;;;;;4.07;3.08;;;10.10;48.40;;;;;;5083131;28;20450;-82
2021/04/17 08:46:52;;;;;;;5.15;2.72;;;10.20;48.10;;;;;;5078816;28;20187;-82
2021/04/17 08:49:25;;;;;;;7.70;3.03;;;10.30;47.90;;;;;;5078940;28;20204;-82
2021/04/17 08:51:51;;;;;;;7.90;2.83;;;10.30;47.70;;;;;;5078584;28;20208;-79
2021/04/17 08:54:20;;;;;;;6.95;2.88;;;10.20;47.10;;;;;;5075954;28;20276;-79
2021/04/17 08:56:52;;;;;;;5.90;3.40;;;10.40;47.70;;;;;;5083943;28;20175;-81
2021/04/17 08:59:26;;;;;;;8.68;3.25;;;10.50;47.70;;;;;;5100681;28;20171;-81
2021/04/17 09:01:53;;;;;;;6.10;2.95;;;10.20;48.20;;;;;;5101542;28;20200;-81
2021/04/17 09:04:21;;;;;;;5.07;2.55;;;10.40;47.30;;;;;;5103674;28;20218;-80
2021/04/17 09:06:55;;;;;;;5.20;2.53;;;10.40;46.10;;;;;;5101076;28;20180;-81
2021/04/17 09:09:22;;;;;;;7.43;3.08;;;10.60;45.80;;;;;;5102305;28;20179;-81
2021/04/17 09:11:54;;;;;;;7.70;2.55;;;10.70;45.80;;;;;;5107018;28;20187;-80
2021/04/17 09:14:26;;;;;;;5.82;3.58;;;10.80;46.00;;;;;;5121210;28;20171;-80
2021/04/17 09:16:54;;;;;;;6.13;2.92;;;10.70;45.90;;;;;;5121186;28;20183;-81
2021/04/17 09:19:38;;;;;;;3.90;2.85;;;10.70;45.60;;;;;;5111775;28;20172;-80
2021/04/17 09:22:26;;;;;;;8.23;2.80;;;10.40;45.50;;;;;;5098456;28;20195;-81
2021/04/17 09:24:54;;;;;;;4.00;3.03;;;10.20;45.90;;;;;;5108391;28;20260;-80
2021/04/17 09:27:34;;;;;;;6.15;2.80;;;10.40;45.80;;;;;;5106909;28;20180;-81
2021/04/17 09:30:08;;;;;;;4.55;2.90;;;10.60;45.30;;;;;;5107711;28;20179;-81
2021/04/17 09:32:45;;;;;;;6.47;2.85;;;10.80;45.20;;;;;;5100874;28;20217;-81
2021/04/17 09:35:49;;;;;;;5.97;2.05;;;10.70;44.90;;;;;;5100994;28;20188;-80
2021/04/17 09:38:16;;;;;;;8.20;2.53;;;11.00;44.60;;;;;;5014847;28;20185;-81
2021/04/17 09:40:44;;;;;;;7.22;3.00;;;10.80;44.00;;;;;;5010008;28;20574;-81
2021/04/17 09:43:42;;;;;;;10.10;2.33;;;10.80;43.40;;;;;;5043533;28;20287;-81
2021/04/17 09:46:19;;;;;;;5.88;2.35;;;10.90;42.60;;;;;;5042008;28;20279;-82
2021/04/17 09:48:46;;;;;;;6.75;3.00;;;10.90;42.80;;;;;;5087678;28;20172;-81
2021/04/17 09:51:22;;;;;;;3.95;2.22;;;11.00;42.60;;;;;;5086382;28;20244;-80
2021/04/17 09:53:49;;;;;;;4.03;2.25;;;11.10;42.50;;;;;;5085058;28;20176;-80
2021/04/17 09:56:30;;;;;;;3.33;2.05;;;10.90;41.90;;;;;;5082765;28;20275;-79
2021/04/17 09:58:58;;;;;;;3.70;1.92;;;11.10;41.40;;;;;;5100480;28;20212;-79
2021/04/17 10:01:24;;;;;;;5.03;2.30;;;11.20;40.50;;;;;;5099053;28;20175;-80
2021/04/17 10:03:52;;;;;;;4.83;2.93;;;11.30;40.60;;;;;;5099541;28;20259;-79
2021/04/17 10:06:32;;;;;;;4.18;2.60;;;11.50;40.20;;;;;;5096945;28;20414;-79
2021/04/17 10:09:07;;;;;;;3.47;2.30;;;11.60;40.20;;;;;;5098764;28;20638;-80
2021/04/17 10:11:34;;;;;;;3.92;2.70;;;11.60;40.40;;;;;;5101081;28;20533;-79
2021/04/17 10:14:00;;;;;;;4.75;2.47;;;11.60;40.10;;;;;;5118741;28;20168;-80
2021/04/17 10:16:41;;;;;;;3.95;2.63;;;11.80;40.10;;;;;;5119396;28;20178;-79
2021/04/17 10:19:16;;;;;;;7.25;2.50;;;12.00;40.10;;;;;;5115782;28;20673;-79
2021/04/17 10:21:45;;;;;;;4.65;2.90;;;12.00;39.50;;;;;;5097596;28;20207;-80
2021/04/17 10:24:19;;;;;;;7.03;2.20;;;12.00;39.80;;;;;;5103092;28;20211;-80
2021/04/17 10:27:09;;;;;;;3.97;2.40;;;11.70;39.90;;;;;;5101289;28;20197;-79
2021/04/17 10:29:41;;;;;;;7.68;2.60;;;11.90;39.90;;;;;;5103875;28;20168;-79
2021/04/17 10:32:23;;;;;;;3.00;2.38;;;11.90;39.40;;;;;;5107749;28;20191;-79
2021/04/17 10:34:52;;;;;;;6.32;2.45;;;11.90;39.00;;;;;;5097071;28;20210;-81
2021/04/17 10:37:23;;;;;;;4.00;2.78;;;11.90;38.70;;;;;;5085363;28;20272;-80
2021/04/17 10:40:11;;;;;;;2.65;2.33;;;11.80;38.30;;;;;;5084620;28;20204;-81
2021/04/17 10:42:50;;;;;;;4.25;2.60;;;11.80;38.90;;;;;;5086889;28;20196;-82
2021/04/17 10:45:37;;;;;;;3.17;2.95;;;12.00;38.40;;;;;;5091882;28;20642;-81
2021/04/17 10:48:06;;;;;;;3.15;2.45;;;11.90;38.40;;;;;;5082088;28;20666;-82
2021/04/17 10:50:55;;;;;;;2.58;1.90;;;12.00;38.30;;;;;;5082006;28;20287;-82
2021/04/17 10:53:30;;;;;;;7.00;2.83;;;12.10;37.40;;;;;;5073087;28;20201;-83
2021/04/17 10:56:16;;;;;;;3.35;2.60;;;11.90;38.00;;;;;;5092115;28;20172;-82
2021/04/17 10:58:43;;;;;;;3.63;2.28;;;12.20;37.80;;;;;;5083396;28;20643;-82
2021/04/17 11:01:15;;;;;;;3.92;2.33;;;12.30;37.00;;;;;;5078693;28;20279;-82
2021/04/17 11:03:47;;;;;;;6.68;2.75;;;12.00;36.50;;;;;;5079285;28;20219;-83
2021/04/17 11:06:38;;;;;;;2.97;2.13;;;11.90;37.00;;;;;;5079531;28;20232;-82
2021/04/17 11:09:16;;;;;;;3.15;1.95;;;12.20;36.80;;;;;;5067947;28;20180;-82
2021/04/17 11:11:56;;;;;;;7.30;2.40;;;12.20;36.70;;;;;;5079853;28;20188;-82
2021/04/17 11:14:24;;;;;;;1.95;1.80;;;11.90;36.00;;;;;;5093863;28;20183;-83
2021/04/17 11:16:51;;;;;;;2.80;2.30;;;12.00;36.30;;;;;;5097809;28;20176;-82
2021/04/17 11:19:29;;;;;;;3.40;2.33;;;12.10;35.40;;;;;;5098838;28;20176;-85
2021/04/17 11:22:06;;;;;;;2.72;2.38;;;11.80;34.80;;;;;;5098820;28;20227;-83
2021/04/17 11:24:32;;;;;;;3.72;2.25;;;11.90;34.60;;;;;;5105196;28;20203;-83
2021/04/17 11:26:58;;;;;;;3.60;2.03;;;11.90;34.50;;;;;;5118628;28;20191;-82
2021/04/17 11:29:23;;;;;;;3.33;3.00;;;11.70;34.50;;;;;;5118750;28;20985;-83
2021/04/17 11:31:49;;;;;;;2.67;2.00;;;11.50;34.50;;;;;;5117952;28;20183;-83
2021/04/17 11:34:17;;;;;;;2.00;1.80;;;11.40;33.80;;;;;;5124807;28;20816;-83
2021/04/17 11:36:43;;;;;;;4.65;1.80;;;11.50;33.30;;;;;;5121260;28;20474;-83
2021/04/17 11:39:09;;;;;;;5.20;2.20;;;11.70;33.30;;;;;;5120121;28;20179;-81
2021/04/17 11:41:34;;;;;;;4.70;2.77;;;11.80;33.10;;;;;;5124319;28;20732;-82
2021/04/17 11:44:00;;;;;;;2.80;1.97;;;11.70;33.40;;;;;;5106062;28;20453;-82
2021/04/17 11:46:26;;;;;;;3.00;2.70;;;12.00;33.40;;;;;;5106239;28;20174;-82
2021/04/17 11:48:53;;;;;;;3.33;2.05;;;12.10;32.30;;;;;;5103264;28;20801;-81
2021/04/17 11:51:21;;;;;;;3.25;2.10;;;12.20;31.50;;;;;;5102670;28;20218;-82
2021/04/17 11:53:48;;;;;;;3.05;2.28;;;12.40;31.10;;;;;;5100180;28;20243;-82
2021/04/17 11:56:15;;;;;;;3.55;2.00;;;12.60;30.90;;;;;;5102820;28;20663;-82
2021/04/17 11:58:41;;;;;;;3.65;3.03;;;12.70;30.90;;;;;;5103836;28;20233;-81
2021/04/17 12:01:07;;;;;;;2.00;1.73;;;12.80;31.10;;;;;;5100936;28;20220;-81
2021/04/17 12:03:33;;;;;;;4.72;2.15;;;12.60;30.70;;;;;;5103963;28;20200;-82
2021/04/17 12:05:59;;;;;;;2.40;2.10;;;12.60;30.00;;;;;;5100640;28;20653;-82
2021/04/17 12:08:25;;;;;;;1.93;1.77;;;12.50;30.00;;;;;;5101096;28;20168;-82
2021/04/17 12:10:52;;;;;;;2.08;1.85;;;12.40;30.00;;;;;;5096699;28;20175;-82
2021/04/17 12:13:18;;;;;;;2.95;1.80;;;12.60;30.50;;;;;;5115887;28;20202;-82
2021/04/17 12:15:46;;;;;;;3.05;2.53;;;12.70;30.20;;;;;;5115518;28;20182;-81
2021/04/17 12:18:13;;;;;;;2.60;2.30;;;12.70;30.00;;;;;;5120607;28;20224;-81
2021/04/17 12:20:39;;;;;;;2.65;2.08;;;12.80;30.00;;;;;;5124056;28;20175;-82
2021/04/17 12:23:05;;;;;;;4.45;2.30;;;12.80;30.00;;;;;;5123924;28;20195;-81
2021/04/17 12:25:31;;;;;;;2.90;2.40;;;12.80;30.00;;;;;;5121206;28;20235;-82
2021/04/17 12:27:57;;;;;;;5.23;2.37;;;12.90;30.40;;;;;;5117922;28;20483;-80
2021/04/17 12:30:23;;;;;;;4.07;2.50;;;12.90;30.80;;;;;;5119533;28;20424;-80
2021/04/17 12:32:50;;;;;;;6.00;2.03;;;12.70;31.50;;;;;;5118435;28;20199;-81
2021/04/17 12:35:16;;;;;;;2.42;2.00;;;12.80;31.90;;;;;;5085596;28;20185;-81
2021/04/17 12:37:45;;;;;;;4.10;2.17;;;12.90;32.00;;;;;;5078876;28;20226;-82
2021/04/17 12:40:11;;;;;;;3.78;1.75;;;13.10;32.00;;;;;;5100267;28;20191;-82
2021/04/17 12:42:39;;;;;;;2.10;1.90;;;13.20;31.40;;;;;;5102012;28;20200;-82
2021/04/17 12:45:12;;;;;;;3.53;2.45;;;13.20;30.90;;;;;;5114653;28;20202;-80
2021/04/17 12:47:39;;;;;;;2.78;2.22;;;13.20;30.40;;;;;;5102617;28;20271;-80
2021/04/17 12:50:06;;;;;;;2.78;2.25;;;12.80;31.10;;;;;;5095544;28;20585;-80
2021/04/17 12:52:32;;;;;;;4.90;2.30;;;12.60;31.80;;;;;;5094668;28;20633;-80
2021/04/17 12:54:59;;;;;;;3.58;2.90;;;12.80;32.00;;;;;;5096231;28;20183;-80
2021/04/17 12:57:25;;;;;;;2.45;2.25;;;12.90;32.20;;;;;;5098053;28;20190;-79
2021/04/17 12:59:51;;;;;;;7.27;2.53;;;12.90;31.30;;;;;;5096201;28;20175;-79